Monse, Washington
Current Conditions -  °F | °C
As of 11:53 AM on Sunday 23 Nov 2014 (Local Time) from KOMK Reporting Station
Overcast Overcast  
Wind Chill: 35°   Ceiling: 3200
Heat Index: 35°   Visibility: 10mi
Dew Point: 32°   Wind: 3mph
Humidity: 89%   Direction: 100°E
Pressure: 29.99"   Gusts: NA
Location:  48.2133°N, 119.829°W
Report Text: KOMK 231953Z AUTO 10003KT 10SM OVC032 02/00 A2999 RMK AO2 SLP172 T00170000
Loading
Personal Weather Stations






























Interactive Weather Map New forecast layout! Learn more

10-Day Weather Forecast

Advertisements
Track Severe Weather on mobile